Airfield :
LOGIN :

Register | Disclaimer

   EN    FR    IT 

 










Legend :    VFR   Marginal VFR   IFR   Intensive IFR   Very Intensive IFR
Visi :
Ceiling :
>= 8 km
>= 3000ft
5 to 8 km
1000 to 3000 ft
1500m to 5 km
500 to 1000 ft
800 to 1500m
200 to 500 ft
< 800m
< 200 ft
Symbols :   Thunderstorms  Fog  Heavy snow  Heavy precipitations  Wind > 20 kt
SIGMETs :     Misc.  Thunderstorms  Icing  Turbulence  Mountain Waves  Volcanic Ashes







- Airport Elevation : 278 ft
- IATA code : RJK


LDRI - Rijeka

CURRENT METAR :
  • 220830Z 27005KT 9999 FEW050 17/08 Q1016

EXPIRED METARs :
  • 220800Z VRB03KT 9999 FEW050 17/08 Q1016
  • 220730Z VRB04KT 9999 FEW050 17/08 Q1017
  • 220700Z VRB02KT 9999 FEW050 17/07 Q1017
  • 220630Z 00000KT 9999 FEW050 16/06 Q1017
  • 220600Z 00000KT 9999 FEW050 14/07 Q1017

TAF TAF LDRI
Valid from the 22 at 06:00 until the 23 at 06:00 UTC


220525Z 2206/2306 VRB02KT CAVOK TX20/2213Z TN10/2304Z
TEMPO 2212/2306 14008KT
BECMG 2301/2303 RA BKN012
No reported NOTAMs for that airfield.



MET'MAP, your aeronautical weather chart ! - Copyright ORBIFLY December 2007 - Disclaimer

ORBIFLY MET'MAP TEAM :

Programming & Development : Alexandra Zaïnal
Concept & Development : Baudouin d'Aumeries
Co-Development & Prog : Marc-Olivier Méhu
Technical & hardware support : Manuel Goepfert

Contact : metmap@orbifly.com




SOURCES & CREDITS :

   NOAA